Aérodrome :
LOGIN :

S'inscrire | Disclaimer

   EN    FR    IT 

 










Légende :    VFR   VFR Marginal   IFR   IFR Intensif   IFR Très Intensif
Visi : 
Plafond : 
>= 8 km
>= 3000ft
5 à 8 km
1000 à 3000 ft
1500m à 5 km
500 à 1000 ft
800 à 1500m
200 à 500 ft
< 800m
< 200 ft
Symboles :   Orages  Brouillard  Fortes neiges  Fortes précipitations  Vent > 20 kt
SIGMETs :   Divers  Orages  Givrage  Turbulence  Onde Orograph.  Cendres Volcan.






- Altitude de l'aérodrome : 978 ft
- Code IATA : LNZ


LOWL - Linz

DERNIER METAR :
  • 290820Z AUTO 10003KT 070V130 9999 FEW070 12/06 Q1011 NOSIG

METARs EXPIRÉS :
  • 290750Z AUTO 10007KT 070V130 9999 FEW080 12/06 Q1011 NOSIG
  • 290720Z AUTO 07006KT 9999 FEW080 11/06 Q1012 NOSIG
  • 290650Z AUTO 07005KT 9999 FEW080 10/06 Q1012 NOSIG
  • 290620Z AUTO 09004KT 9999 FEW080 09/06 Q1012 NOSIG
  • 290550Z AUTO VRB01KT 9999 SCT080 09/07 Q1012 NOSIG

TAF TAF LOWL
Valide du 29 à 06h jusqu'au 30 à 06h UTC


290515Z 2906/3006 VRB03KT 9999 FEW050 SCT080 TX14/2911Z TN06/3004Z
TEMPO 2911/2920 -SHRA
PROB30
TEMPO 2916/2920 SHRA SCT040 FEW040CB
TEMPO 3003/3006 0600 BCFG BKN002



MET'MAP, la Météo Aéronautique d'un coup d'oeil ! - Copyright ORBIFLY Décembre 2007 - Disclaimer

ORBIFLY MET'MAP TEAM :

Programmation & Développement : Alexandra Zaïnal
Sur une idée originale de : Baudouin d'Aumeries
Soutien technique & logistique : Manuel Goepfert
Assistance : Marc-Olivier Méhu

Contact : metmap@orbifly.com




SOURCES & CREDITS :

   NOAA